createdAt,value
2022-08-03T00:00:26.141Z,96.50
2022-08-03T00:02:53.015Z,96.60
2022-08-03T00:05:19.745Z,96.90
2022-08-03T00:07:46.385Z,96.80
2022-08-03T00:10:15.230Z,96.80
2022-08-03T00:12:41.864Z,96.80
2022-08-03T00:15:11.283Z,96.80
2022-08-03T00:17:52.431Z,97.10
2022-08-03T00:20:23.515Z,97.00
2022-08-03T00:22:50.226Z,97.00
2022-08-03T00:25:16.974Z,97.40
2022-08-03T00:27:43.629Z,96.80
2022-08-03T00:30:10.538Z,96.90
2022-08-03T00:32:37.217Z,96.70
2022-08-03T00:35:10.564Z,96.70
2022-08-03T00:37:40.771Z,96.80
2022-08-03T00:40:12.569Z,97.30
2022-08-03T00:42:50.516Z,97.10
2022-08-03T00:45:17.904Z,97.00
2022-08-03T00:47:44.901Z,97.20
2022-08-03T00:50:11.781Z,97.30
2022-08-03T00:52:38.814Z,97.40
2022-08-03T00:55:05.817Z,97.80
2022-08-03T00:57:32.865Z,97.80
2022-08-03T01:00:00.211Z,97.50
2022-08-03T01:02:27.703Z,97.80
2022-08-03T01:04:54.424Z,97.40
2022-08-03T01:07:33.279Z,97.30
2022-08-03T01:10:06.334Z,97.30
2022-08-03T01:12:37.546Z,97.30
2022-08-03T01:15:13.116Z,97.50
2022-08-03T01:17:49.473Z,98.00
2022-08-03T01:20:16.856Z,97.50
2022-08-03T01:23:00.846Z,97.40
2022-08-03T01:25:38.556Z,97.50
2022-08-03T01:28:17.287Z,97.50
2022-08-03T01:30:45.367Z,97.80
2022-08-03T01:33:26.018Z,98.00
2022-08-03T01:36:03.179Z,98.40
2022-08-03T01:38:34.146Z,98.50
2022-08-03T01:41:04.505Z,98.40
2022-08-03T01:44:03.077Z,98.40
2022-08-03T01:46:19.891Z,98.50
2022-08-03T01:48:47.840Z,99.40
2022-08-03T01:51:15.894Z,99.00
2022-08-03T01:53:45.305Z,99.00
2022-08-03T01:56:12.526Z,99.00
2022-08-03T01:58:40.588Z,99.20
2022-08-03T02:01:09.065Z,98.80
2022-08-03T02:03:38.266Z,99.10
2022-08-03T02:07:01.141Z,99.00
2022-08-03T02:09:13.426Z,98.90
2022-08-03T02:11:40.608Z,99.00
2022-08-03T02:14:09.532Z,99.30
2022-08-03T02:16:36.292Z,99.10
2022-08-03T02:19:04.489Z,99.20
2022-08-03T02:21:56.927Z,99.10
2022-08-03T02:24:19.118Z,99.60
2022-08-03T02:26:46.478Z,99.80
2022-08-03T02:29:18.858Z,99.70
2022-08-03T02:31:46.353Z,99.60
2022-08-03T02:34:14.323Z,99.70
2022-08-03T02:36:41.850Z,99.80
2022-08-03T02:39:11.423Z,99.80
2022-08-03T02:41:42.072Z,99.70
2022-08-03T02:44:09.518Z,99.60
2022-08-03T02:46:38.472Z,99.90
2022-08-03T02:49:40.830Z,99.60
2022-08-03T02:51:54.324Z,99.80
2022-08-03T02:54:23.499Z,99.90
2022-08-03T02:56:50.257Z,99.70
2022-08-03T02:59:18.143Z,99.50
2022-08-03T03:01:45.366Z,99.60
2022-08-03T03:04:12.076Z,99.60
2022-08-03T03:06:40.441Z,99.70
2022-08-03T03:09:07.735Z,99.70
2022-08-03T03:11:35.899Z,99.80
2022-08-03T03:14:02.643Z,99.70
2022-08-03T03:16:30.231Z,99.70
2022-08-03T03:18:57.246Z,99.70
2022-08-03T03:21:24.067Z,99.70
2022-08-03T03:23:50.803Z,99.90
2022-08-03T03:26:17.969Z,99.90
2022-08-03T03:28:45.055Z,99.90
2022-08-03T03:31:11.767Z,99.90
2022-08-03T03:33:38.855Z,99.90
2022-08-03T03:36:06.407Z,99.90
2022-08-03T03:38:33.763Z,99.90
2022-08-03T03:41:00.646Z,99.90
2022-08-03T03:43:27.391Z,99.90
2022-08-03T03:45:54.920Z,99.90
2022-08-03T03:48:21.579Z,99.90
2022-08-03T03:50:49.667Z,99.80
2022-08-03T03:53:16.431Z,99.90
2022-08-03T03:55:59.588Z,99.90
2022-08-03T03:58:29.783Z,99.90
2022-08-03T04:00:56.912Z,99.90
2022-08-03T04:03:23.712Z,99.90
2022-08-03T04:06:09.210Z,99.90
2022-08-03T04:08:54.713Z,99.90
2022-08-03T04:11:29.368Z,99.90
2022-08-03T04:14:01.959Z,99.90
2022-08-03T04:16:31.173Z,99.90
2022-08-03T04:19:00.537Z,99.90
2022-08-03T04:21:28.624Z,99.90
2022-08-03T04:23:56.386Z,99.90
2022-08-03T04:26:24.447Z,99.90
2022-08-03T04:28:51.855Z,99.90
2022-08-03T04:31:21.901Z,99.90
2022-08-03T04:33:48.714Z,99.90
2022-08-03T04:36:17.252Z,99.90
2022-08-03T04:39:09.989Z,99.90
2022-08-03T04:42:07.401Z,99.90
2022-08-03T04:44:28.491Z,99.90
2022-08-03T04:46:56.384Z,99.90
2022-08-03T04:49:23.879Z,99.90
2022-08-03T04:51:50.868Z,99.90
2022-08-03T04:54:17.628Z,99.90
2022-08-03T04:56:44.521Z,99.90
2022-08-03T04:59:11.328Z,99.90
2022-08-03T05:01:39.289Z,99.90
2022-08-03T05:04:06.023Z,99.90
2022-08-03T05:06:32.639Z,99.90
2022-08-03T05:08:59.921Z,99.90
2022-08-03T05:11:26.578Z,99.90
2022-08-03T05:13:53.297Z,99.90
2022-08-03T05:16:20.024Z,99.90
2022-08-03T05:18:46.689Z,99.90
2022-08-03T05:21:14.465Z,99.90
2022-08-03T05:23:41.364Z,99.90
2022-08-03T05:26:08.023Z,99.90
2022-08-03T05:28:34.698Z,99.90
2022-08-03T05:31:01.358Z,99.90
2022-08-03T05:33:27.991Z,99.90
2022-08-03T05:36:01.701Z,99.90
2022-08-03T05:38:34.170Z,99.90
2022-08-03T05:41:21.089Z,99.90
2022-08-03T05:43:49.571Z,99.90
2022-08-03T05:46:16.261Z,99.90
2022-08-03T05:48:43.277Z,99.90
2022-08-03T05:51:11.281Z,99.90
2022-08-03T05:53:38.588Z,99.90
2022-08-03T05:56:13.601Z,99.90
2022-08-03T05:58:46.037Z,99.90
2022-08-03T06:01:12.988Z,99.90
2022-08-03T06:03:39.714Z,99.80
2022-08-03T06:06:06.399Z,99.80
2022-08-03T06:08:33.014Z,99.80
2022-08-03T06:10:59.751Z,99.70
2022-08-03T06:13:26.414Z,99.70
2022-08-03T06:15:53.068Z,99.50
2022-08-03T06:18:20.111Z,99.50
2022-08-03T06:20:47.063Z,99.50
2022-08-03T06:23:18.011Z,99.50
2022-08-03T06:25:45.572Z,99.40
2022-08-03T06:28:35.217Z,99.30
2022-08-03T06:31:00.855Z,99.40
2022-08-03T06:33:48.417Z,99.20
2022-08-03T06:36:14.531Z,99.20
2022-08-03T06:38:41.206Z,99.10
2022-08-03T06:41:07.922Z,98.90
2022-08-03T06:43:38.024Z,98.90
2022-08-03T06:46:24.171Z,98.70
2022-08-03T06:48:51.042Z,98.60
2022-08-03T06:51:17.681Z,98.80
2022-08-03T06:53:44.345Z,98.80
2022-08-03T06:56:11.083Z,98.70
2022-08-03T06:58:37.717Z,98.50
2022-08-03T07:01:04.398Z,98.60
2022-08-03T07:03:31.122Z,98.60
2022-08-03T07:05:57.826Z,98.60
2022-08-03T07:08:33.745Z,98.10
2022-08-03T07:11:01.390Z,98.20
2022-08-03T07:13:28.014Z,98.20
2022-08-03T07:15:56.159Z,98.10
2022-08-03T07:18:29.978Z,98.00
2022-08-03T07:20:57.414Z,98.10
2022-08-03T07:23:24.132Z,98.00
2022-08-03T07:25:50.981Z,98.00
2022-08-03T07:28:18.071Z,98.20
2022-08-03T07:30:45.156Z,97.80
2022-08-03T07:33:12.185Z,97.60
2022-08-03T07:35:39.204Z,97.40
2022-08-03T07:38:06.393Z,97.50
2022-08-03T07:40:33.705Z,97.30
2022-08-03T07:43:02.239Z,97.30
2022-08-03T07:45:30.271Z,97.20
2022-08-03T07:47:57.333Z,97.10
2022-08-03T07:50:24.434Z,96.80
2022-08-03T07:52:53.176Z,96.90
2022-08-03T07:55:21.245Z,96.80
2022-08-03T07:57:59.018Z,97.50
2022-08-03T08:00:26.438Z,97.20
2022-08-03T08:02:53.675Z,96.70
2022-08-03T08:05:20.655Z,96.40
2022-08-03T08:07:51.401Z,96.00
2022-08-03T08:10:19.085Z,96.00
2022-08-03T08:12:46.288Z,95.60
2022-08-03T08:15:13.242Z,95.60
2022-08-03T08:17:44.107Z,95.60
2022-08-03T08:20:11.990Z,95.70
2022-08-03T08:22:38.971Z,95.60
2022-08-03T08:25:07.461Z,95.50
2022-08-03T08:28:22.235Z,95.30
2022-08-03T08:30:22.658Z,95.20
2022-08-03T08:32:50.145Z,95.30
2022-08-03T08:35:17.587Z,95.10
2022-08-03T08:37:50.971Z,95.10
2022-08-03T08:40:20.989Z,95.10
2022-08-03T08:42:57.872Z,94.90
2022-08-03T08:45:25.586Z,94.70
2022-08-03T08:47:59.507Z,94.60
2022-08-03T08:50:28.440Z,94.40
2022-08-03T08:52:55.990Z,93.80
2022-08-03T08:55:23.760Z,92.90
2022-08-03T08:57:59.368Z,93.30
2022-08-03T09:00:26.368Z,93.20
2022-08-03T09:02:53.359Z,93.30
2022-08-03T09:05:27.821Z,93.20
2022-08-03T09:08:07.678Z,93.30
2022-08-03T09:10:35.230Z,92.90
2022-08-03T09:13:01.962Z,92.30
2022-08-03T09:15:31.465Z,91.40
2022-08-03T09:17:59.287Z,91.70
2022-08-03T09:20:26.996Z,92.00
2022-08-03T09:22:55.743Z,91.90
2022-08-03T09:25:36.547Z,91.90
2022-08-03T09:28:59.704Z,91.50
2022-08-03T09:31:10.529Z,91.70
2022-08-03T09:33:47.033Z,91.50
2022-08-03T09:36:34.511Z,91.80
2022-08-03T09:39:06.531Z,91.80
2022-08-03T09:41:33.588Z,91.80
2022-08-03T09:44:00.387Z,91.50
2022-08-03T09:46:31.707Z,90.00
2022-08-03T09:49:12.026Z,90.80
2022-08-03T09:52:31.675Z,90.40
2022-08-03T09:54:29.855Z,90.30
2022-08-03T09:56:57.197Z,90.20
2022-08-03T09:59:33.564Z,90.00
2022-08-03T10:02:01.036Z,89.40
2022-08-03T10:04:28.149Z,89.70
2022-08-03T10:07:06.054Z,88.90
2022-08-03T10:09:33.337Z,88.70
2022-08-03T10:12:10.268Z,89.00
2022-08-03T10:14:41.943Z,88.30
2022-08-03T10:17:11.856Z,88.30
2022-08-03T10:19:38.688Z,88.00
2022-08-03T10:22:24.675Z,87.30
2022-08-03T10:25:04.011Z,87.20
2022-08-03T10:27:32.699Z,86.10
2022-08-03T10:30:01.427Z,87.80
2022-08-03T10:32:29.243Z,87.50
2022-08-03T10:35:18.923Z,85.30
2022-08-03T10:37:57.047Z,85.10
2022-08-03T10:40:46.810Z,86.10
2022-08-03T10:43:23.050Z,85.00
2022-08-03T10:45:50.484Z,82.40
2022-08-03T10:48:17.983Z,83.00
2022-08-03T10:50:45.405Z,82.60
2022-08-03T10:53:12.795Z,83.50
2022-08-03T10:56:03.436Z,83.00
2022-08-03T10:58:57.060Z,84.50
2022-08-03T11:01:58.841Z,81.90
2022-08-03T11:04:26.895Z,80.40
2022-08-03T11:07:22.174Z,79.30
2022-08-03T11:09:53.345Z,79.00
2022-08-03T11:12:30.071Z,77.70
2022-08-03T11:15:08.921Z,77.80
2022-08-03T11:17:46.298Z,77.60
2022-08-03T11:20:44.275Z,76.80
2022-08-03T11:23:11.358Z,77.20
2022-08-03T11:25:57.045Z,76.70
2022-08-03T11:28:30.643Z,76.30
2022-08-03T11:31:39.175Z,76.10
2022-08-03T11:34:07.195Z,77.00
2022-08-03T11:36:52.780Z,75.80
2022-08-03T11:39:19.620Z,76.70
2022-08-03T11:41:46.485Z,73.40
2022-08-03T11:44:33.324Z,73.10
2022-08-03T11:47:00.690Z,72.10
2022-08-03T11:49:27.823Z,72.70
2022-08-03T11:51:54.859Z,71.10
2022-08-03T11:54:22.842Z,70.80
2022-08-03T11:56:50.955Z,68.80
2022-08-03T11:59:21.751Z,68.10
2022-08-03T12:01:49.961Z,69.50
2022-08-03T12:04:16.832Z,69.00
2022-08-03T12:06:58.419Z,68.30
2022-08-03T12:09:25.250Z,68.10
2022-08-03T12:12:00.289Z,69.30
2022-08-03T12:14:50.918Z,68.70
2022-08-03T12:17:14.988Z,66.20
2022-08-03T12:19:42.267Z,67.50
2022-08-03T12:22:08.926Z,66.20
2022-08-03T12:24:42.570Z,63.50
2022-08-03T12:27:09.408Z,64.20
2022-08-03T12:29:36.334Z,60.70
2022-08-03T12:32:03.063Z,60.50
2022-08-03T12:34:49.214Z,59.70
2022-08-03T12:37:22.518Z,60.90
2022-08-03T12:40:03.066Z,60.80
2022-08-03T12:42:35.256Z,60.70
2022-08-03T12:45:20.642Z,59.30
2022-08-03T12:47:51.297Z,59.70
2022-08-03T12:50:31.869Z,60.70
2022-08-03T12:52:59.825Z,60.10
2022-08-03T12:55:57.433Z,59.50
2022-08-03T12:58:33.970Z,61.10
2022-08-03T13:01:01.681Z,61.00
2022-08-03T13:03:42.706Z,61.20
2022-08-03T13:06:14.120Z,61.80
2022-08-03T13:08:40.831Z,61.50
2022-08-03T13:11:47.579Z,62.50
2022-08-03T13:14:16.728Z,61.50
2022-08-03T13:16:47.312Z,63.10
2022-08-03T13:19:15.635Z,62.50
2022-08-03T13:21:53.383Z,63.10
2022-08-03T13:24:30.494Z,62.80
2022-08-03T13:26:58.374Z,62.90
2022-08-03T13:29:25.036Z,62.40
2022-08-03T13:31:51.713Z,62.60
2022-08-03T13:34:22.937Z,63.80
2022-08-03T13:37:08.368Z,64.00
2022-08-03T13:39:58.407Z,63.30
2022-08-03T13:42:23.085Z,63.70
2022-08-03T13:44:49.812Z,63.90
2022-08-03T13:47:16.455Z,63.30
2022-08-03T13:50:00.136Z,62.70
2022-08-03T13:52:32.663Z,62.80
2022-08-03T13:55:00.147Z,62.10
2022-08-03T13:58:02.242Z,61.80
2022-08-03T14:00:16.693Z,61.20
2022-08-03T14:03:01.881Z,61.70
2022-08-03T14:05:32.303Z,62.10
2022-08-03T14:08:04.835Z,62.60
2022-08-03T14:10:39.482Z,60.80
2022-08-03T14:13:06.620Z,61.50
2022-08-03T14:15:38.234Z,60.10
2022-08-03T14:18:06.548Z,59.80
2022-08-03T14:20:38.496Z,59.60
2022-08-03T14:23:14.724Z,58.10
2022-08-03T14:25:49.876Z,58.70
2022-08-03T14:28:18.631Z,56.90
2022-08-03T14:30:45.537Z,57.10
2022-08-03T14:33:12.209Z,57.80
2022-08-03T14:35:38.800Z,57.90
2022-08-03T14:38:05.608Z,57.60
2022-08-03T14:40:32.319Z,58.20
2022-08-03T14:42:59.019Z,58.20
2022-08-03T14:45:25.889Z,58.00
2022-08-03T14:50:27.963Z,57.60
2022-08-03T14:50:44.227Z,55.90
2022-08-03T14:53:13.674Z,56.90
2022-08-03T14:55:50.408Z,57.20
2022-08-03T14:58:21.174Z,55.70
2022-08-03T15:00:51.388Z,56.10
2022-08-03T15:03:21.558Z,56.30
2022-08-03T15:05:48.347Z,56.40
2022-08-03T15:08:15.158Z,56.50
2022-08-03T15:10:44.308Z,56.40
2022-08-03T15:13:14.962Z,54.40
2022-08-03T15:15:41.634Z,53.60
2022-08-03T15:18:08.298Z,52.20
2022-08-03T15:20:50.419Z,53.20
2022-08-03T15:23:17.843Z,53.00
2022-08-03T15:26:31.582Z,51.50
2022-08-03T15:28:31.898Z,51.00
2022-08-03T15:30:58.596Z,51.80
2022-08-03T15:33:25.207Z,52.10
2022-08-03T15:35:52.917Z,50.80
2022-08-03T15:38:19.592Z,48.40
2022-08-03T15:40:46.282Z,49.60
2022-08-03T15:43:12.983Z,49.40
2022-08-03T15:45:40.527Z,48.50
2022-08-03T15:48:08.698Z,43.60
2022-08-03T15:50:35.556Z,44.10
2022-08-03T15:53:02.178Z,43.10
2022-08-03T15:55:31.470Z,38.90
2022-08-03T15:59:04.117Z,38.70
2022-08-03T16:00:47.095Z,39.40
2022-08-03T16:03:13.831Z,38.60
2022-08-03T16:05:40.479Z,38.20
2022-08-03T16:08:11.807Z,37.70
2022-08-03T16:10:40.731Z,38.10
2022-08-03T16:13:07.705Z,37.90
2022-08-03T16:15:34.474Z,38.80
2022-08-03T16:18:08.924Z,37.40
2022-08-03T16:20:35.781Z,37.80
2022-08-03T16:23:10.302Z,38.10
2022-08-03T16:25:42.413Z,38.00
2022-08-03T16:28:13.866Z,37.10
2022-08-03T16:30:42.184Z,36.50
2022-08-03T16:33:09.183Z,36.40
2022-08-03T16:35:36.147Z,35.60
2022-08-03T16:38:07.792Z,33.80
2022-08-03T16:40:36.510Z,35.60
2022-08-03T16:43:10.312Z,35.70
2022-08-03T16:45:45.738Z,35.60
2022-08-03T16:48:12.487Z,35.80
2022-08-03T16:50:39.176Z,34.70
2022-08-03T16:53:09.798Z,36.40
2022-08-03T16:55:48.523Z,37.40
2022-08-03T16:58:34.883Z,38.10
2022-08-03T17:01:22.039Z,38.90
2022-08-03T17:04:01.765Z,39.40
2022-08-03T17:06:34.269Z,41.20
2022-08-03T17:09:02.052Z,41.40
2022-08-03T17:11:33.025Z,41.80
2022-08-03T17:14:00.148Z,42.50
2022-08-03T17:16:26.869Z,42.80
2022-08-03T17:18:54.926Z,43.30
2022-08-03T17:21:23.745Z,43.80
2022-08-03T17:23:59.948Z,44.10
2022-08-03T17:26:30.247Z,44.40
2022-08-03T17:29:02.053Z,44.90
2022-08-03T17:31:48.570Z,45.40
2022-08-03T17:34:16.275Z,45.90
2022-08-03T17:39:48.811Z,46.80
2022-08-03T17:42:30.343Z,47.10
2022-08-03T17:44:58.823Z,47.50
2022-08-03T17:47:42.443Z,47.80
2022-08-03T17:50:24.518Z,48.00
2022-08-03T17:53:07.854Z,48.30
2022-08-03T17:55:57.227Z,48.60
2022-08-03T17:58:34.262Z,48.80
2022-08-03T18:01:57.110Z,49.00
2022-08-03T18:04:11.784Z,49.20
2022-08-03T18:06:55.850Z,49.70
2022-08-03T18:10:03.509Z,49.90
2022-08-03T18:12:14.088Z,50.20
2022-08-03T18:14:59.205Z,50.40
2022-08-03T18:17:55.179Z,51.20
2022-08-03T18:20:32.808Z,50.80
2022-08-03T18:23:06.010Z,51.00
2022-08-03T18:28:25.624Z,51.80
2022-08-03T18:30:56.403Z,52.40
2022-08-03T18:34:17.896Z,53.10
2022-08-03T18:36:17.946Z,53.20
2022-08-03T18:38:47.440Z,53.30
2022-08-03T18:41:32.583Z,53.50
2022-08-03T18:44:08.162Z,53.60
2022-08-03T18:46:48.241Z,53.90
2022-08-03T18:49:29.235Z,54.30
2022-08-03T18:52:02.241Z,54.70
2022-08-03T18:54:51.070Z,55.30
2022-08-03T18:57:22.481Z,55.90
2022-08-03T19:00:04.238Z,56.20
2022-08-03T19:05:57.749Z,57.10
2022-08-03T19:08:49.292Z,57.60
2022-08-03T19:12:11.040Z,58.10
2022-08-03T19:14:28.828Z,58.50
2022-08-03T19:17:00.654Z,59.00
2022-08-03T19:19:43.450Z,59.40
2022-08-03T19:22:16.074Z,59.80
2022-08-03T19:24:45.152Z,60.10
2022-08-03T19:27:12.235Z,60.40
2022-08-03T19:29:59.480Z,60.80
2022-08-03T19:32:28.890Z,61.10
2022-08-03T19:34:56.826Z,61.50
2022-08-03T19:37:33.153Z,61.60
2022-08-03T19:40:10.311Z,62.00
2022-08-03T19:42:39.557Z,62.30
2022-08-03T19:45:13.892Z,62.60
2022-08-03T19:47:58.375Z,62.90
2022-08-03T19:50:25.059Z,63.40
2022-08-03T19:52:52.685Z,63.60
2022-08-03T19:55:19.697Z,63.80
2022-08-03T19:57:47.088Z,64.20
2022-08-03T20:00:19.294Z,64.30
2022-08-03T20:02:46.370Z,64.70
2022-08-03T20:05:19.917Z,64.90
2022-08-03T20:07:48.336Z,65.20
2022-08-03T20:10:16.175Z,65.60
2022-08-03T20:12:43.866Z,65.90
2022-08-03T20:15:10.991Z,66.20
2022-08-03T20:17:56.309Z,66.30
2022-08-03T20:20:27.813Z,66.50
2022-08-03T20:22:57.805Z,66.70
2022-08-03T20:25:27.271Z,67.00
2022-08-03T20:28:14.185Z,67.30
2022-08-03T20:30:42.648Z,67.60
2022-08-03T20:33:10.221Z,67.80
2022-08-03T20:35:36.930Z,68.10
2022-08-03T20:38:03.583Z,68.30
2022-08-03T20:40:30.241Z,68.50
2022-08-03T20:42:56.887Z,68.60
2022-08-03T20:46:00.390Z,68.80
2022-08-03T20:48:10.531Z,69.00
2022-08-03T20:50:40.377Z,69.30
2022-08-03T20:53:12.155Z,69.50
2022-08-03T20:55:47.584Z,69.80
2022-08-03T20:58:29.063Z,70.20
2022-08-03T21:00:57.426Z,70.60
2022-08-03T21:03:40.651Z,70.70
2022-08-03T21:06:09.881Z,71.00
2022-08-03T21:08:38.676Z,71.40
2022-08-03T21:11:16.459Z,71.70
2022-08-03T21:12:58.031Z,51.30
2022-08-03T21:13:10.281Z,56.70
2022-08-03T21:13:51.698Z,72.10
2022-08-03T21:16:21.468Z,72.30
2022-08-03T21:18:50.091Z,72.70
2022-08-03T21:21:18.330Z,72.90
2022-08-03T21:23:49.707Z,73.30
2022-08-03T21:26:23.949Z,73.50
2022-08-03T21:28:51.595Z,73.60
2022-08-03T21:31:24.322Z,74.00
2022-08-03T21:34:03.358Z,74.30
2022-08-03T21:36:31.156Z,74.50
2022-08-03T21:38:58.101Z,74.80
2022-08-03T21:41:25.892Z,75.10
2022-08-03T21:43:52.530Z,75.50
2022-08-03T21:46:19.812Z,75.70
2022-08-03T21:48:48.226Z,76.00
2022-08-03T21:51:16.399Z,76.30
2022-08-03T21:54:02.878Z,76.50
2022-08-03T21:56:34.752Z,76.70
2022-08-03T21:59:05.968Z,77.10
2022-08-03T22:01:35.394Z,77.40
2022-08-03T22:04:04.561Z,77.80
2022-08-03T22:06:33.882Z,78.00
2022-08-03T22:09:00.657Z,78.20
2022-08-03T22:11:27.578Z,78.50
2022-08-03T22:13:54.439Z,78.70
2022-08-03T22:16:21.377Z,78.80
2022-08-03T22:18:48.016Z,79.20
2022-08-03T22:21:15.723Z,79.30
2022-08-03T22:23:43.734Z,79.60
2022-08-03T22:26:13.152Z,79.90
2022-08-03T22:28:39.916Z,80.10
2022-08-03T22:31:30.566Z,80.30
2022-08-03T22:33:54.401Z,80.60
2022-08-03T22:36:22.934Z,80.80
2022-08-03T22:38:51.042Z,81.00
2022-08-03T22:41:18.377Z,81.20
2022-08-03T22:43:45.110Z,81.50
2022-08-03T22:46:18.261Z,81.60
2022-08-03T22:48:46.403Z,82.00
2022-08-03T22:51:15.150Z,82.10
2022-08-03T22:53:41.967Z,82.10
2022-08-03T22:56:08.851Z,82.30
2022-08-03T22:58:35.603Z,82.60
2022-08-03T23:01:03.826Z,82.90
2022-08-03T23:04:01.150Z,83.00
2022-08-03T23:06:21.487Z,83.10
2022-08-03T23:08:49.550Z,83.20
2022-08-03T23:11:17.459Z,83.30
2022-08-03T23:13:45.567Z,83.40
2022-08-03T23:16:13.131Z,83.60
2022-08-03T23:18:42.336Z,83.80
2022-08-03T23:21:11.615Z,83.80
2022-08-03T23:23:44.584Z,84.00
2022-08-03T23:26:12.564Z,84.20
2022-08-03T23:28:39.796Z,84.30
2022-08-03T23:31:07.615Z,84.50
2022-08-03T23:33:36.688Z,84.70
2022-08-03T23:36:28.934Z,84.80
2022-08-03T23:38:53.401Z,84.80
2022-08-03T23:41:20.291Z,85.10
2022-08-03T23:43:53.922Z,85.20
2022-08-03T23:46:25.724Z,85.50
2022-08-03T23:48:53.899Z,85.70
2022-08-03T23:51:41.959Z,85.90
2022-08-03T23:54:31.220Z,86.00
2022-08-03T23:57:00.720Z,86.20
2022-08-03T23:59:27.307Z,86.50
